Time;durP1;ratioP1;P1;durP2;ratioP2;P2;SDS_P1;SDS_P2;PMS_P1;PMS_P2;Temp;Humidity;BMP_temperature;BMP_pressure;BME280_temperature;BME280_humidity;BME280_pressure;Samples;Min_cycle;Max_cycle;Signal;HPM_P1;HPM_P2
2024/01/10 00:00:41;;;;;;;0.80;0.50;;;;;;;-143.84;62.72;45304.25;5111333;28;20266;-57
2024/01/10 00:03:08;;;;;;;0.80;0.50;;;;;;;-143.84;62.54;45327.09;5111032;28;20229;-57
2024/01/10 00:05:35;;;;;;;0.80;0.70;;;;;;;-143.84;62.03;45325.19;5111213;28;20202;-57
2024/01/10 00:08:02;;;;;;;0.80;0.50;;;;;;;-143.84;61.56;45287.09;5111157;28;20193;-58
2024/01/10 00:10:31;;;;;;;0.80;0.60;;;;;;;-143.84;61.33;45304.25;5111036;28;20201;-58
2024/01/10 00:12:58;;;;;;;0.88;0.75;;;;;;;-143.84;61.29;45308.03;5110677;28;20193;-58
2024/01/10 00:15:25;;;;;;;0.80;0.50;;;;;;;-143.84;61.16;45308.03;5110491;28;20201;-57
2024/01/10 00:17:52;;;;;;;0.80;0.50;;;;;;;-143.84;61.26;45323.28;5109830;28;20640;-57
2024/01/10 00:20:19;;;;;;;0.80;0.50;;;;;;;-143.84;61.18;45323.28;5109811;28;20233;-58
2024/01/10 00:22:46;;;;;;;0.80;0.55;;;;;;;-143.84;60.98;45300.44;5109304;28;20201;-57
2024/01/10 00:25:13;;;;;;;0.80;0.50;;;;;;;-143.84;61.04;45311.84;5109942;28;20277;-57
2024/01/10 00:27:42;;;;;;;0.80;0.57;;;;;;;-143.84;60.51;45353.75;5109574;28;20254;-58
2024/01/10 00:30:09;;;;;;;0.80;0.50;;;;;;;-143.84;60.16;45308.03;5109993;28;20916;-57
2024/01/10 00:32:36;;;;;;;0.80;0.50;;;;;;;-143.84;59.94;45304.25;5110823;28;20197;-57
2024/01/10 00:35:04;;;;;;;0.80;0.50;;;;;;;-143.84;60.16;45285.19;5110050;28;20198;-57
2024/01/10 00:37:31;;;;;;;0.80;0.50;;;;;;;-143.84;60.29;45325.19;5109714;28;20197;-57
2024/01/10 00:39:58;;;;;;;0.80;0.50;;;;;;;-143.84;60.34;45290.91;5109543;28;20257;-57
2024/01/10 00:42:25;;;;;;;0.80;0.57;;;;;;;-143.84;60.52;45321.38;5109612;28;20242;-57
2024/01/10 00:44:54;;;;;;;6.88;1.67;;;;;;;-143.84;61.19;45329.00;5109848;28;20229;-57
2024/01/10 00:47:21;;;;;;;0.80;0.50;;;;;;;-143.84;61.23;45315.66;5110714;28;20240;-58
2024/01/10 00:49:48;;;;;;;0.82;0.73;;;;;;;-143.84;61.49;45304.25;5110302;28;20336;-58
2024/01/10 00:52:15;;;;;;;0.80;0.50;;;;;;;-143.84;61.38;45315.66;5110161;28;20246;-57
2024/01/10 00:54:43;;;;;;;0.80;0.50;;;;;;;-143.84;61.43;45298.53;5110308;28;20209;-57
2024/01/10 00:57:11;;;;;;;0.80;0.50;;;;;;;-143.84;61.23;45317.56;5110112;28;20307;-57
2024/01/10 00:59:38;;;;;;;0.80;0.47;;;;;;;-143.84;61.62;45329.00;5110722;28;20243;-57
2024/01/10 01:02:06;;;;;;;0.80;0.50;;;;;;;-143.84;61.49;45311.84;5110078;28;20254;-57
2024/01/10 01:04:33;;;;;;;0.80;0.50;;;;;;;-143.84;61.53;45296.63;5110441;28;20667;-57
2024/01/10 01:07:00;;;;;;;0.80;0.50;;;;;;;-143.84;62.23;45319.47;5109888;28;20258;-57
2024/01/10 01:09:27;;;;;;;0.80;0.60;;;;;;;-143.84;62.75;45325.19;5109605;28;20214;-57
2024/01/10 01:11:55;;;;;;;0.80;0.60;;;;;;;-143.84;62.94;45292.81;5109873;28;20608;-57
2024/01/10 01:14:21;;;;;;;0.80;0.50;;;;;;;-143.84;62.57;45323.28;5109750;28;20201;-57
2024/01/10 01:16:48;;;;;;;0.80;0.60;;;;;;;-143.84;62.88;45313.75;5109932;28;20652;-57
2024/01/10 01:19:16;;;;;;;0.80;0.50;;;;;;;-143.84;62.28;45329.00;5110344;28;20635;-57
2024/01/10 01:21:43;;;;;;;0.80;0.60;;;;;;;-143.84;62.27;45344.22;5109643;28;20229;-57
2024/01/10 01:24:11;;;;;;;0.95;0.77;;;;;;;-143.84;62.54;45336.59;5109629;28;20209;-57
2024/01/10 01:26:38;;;;;;;0.80;0.50;;;;;;;-143.84;62.29;45327.09;5109393;28;20189;-57
2024/01/10 01:29:05;;;;;;;0.80;0.50;;;;;;;-143.84;62.51;45323.28;5109733;28;20246;-57
2024/01/10 01:31:32;;;;;;;0.80;0.50;;;;;;;-143.84;62.78;45311.84;5109861;28;20197;-57
2024/01/10 01:33:59;;;;;;;0.80;0.50;;;;;;;-143.84;62.56;45311.84;5109649;28;20269;-57
2024/01/10 01:36:28;;;;;;;0.80;0.50;;;;;;;-143.84;62.85;45304.25;5109748;28;20189;-57
2024/01/10 01:38:55;;;;;;;0.80;0.50;;;;;;;-143.84;62.89;45317.56;5109615;28;20209;-57
2024/01/10 01:41:22;;;;;;;0.80;0.50;;;;;;;-143.84;63.03;45325.19;5110049;28;20266;-57
2024/01/10 01:43:49;;;;;;;1.10;1.00;;;;;;;-143.84;63.04;45309.94;5109532;28;20251;-57
2024/01/10 01:46:16;;;;;;;0.80;0.52;;;;;;;-143.84;63.08;45340.41;5109636;28;20201;-57
2024/01/10 01:48:44;;;;;;;0.80;0.68;;;;;;;-143.84;63.68;45311.84;5109660;28;20193;-57
2024/01/10 01:51:13;;;;;;;0.80;0.50;;;;;;;-143.84;63.41;45302.34;5109381;28;20198;-57
2024/01/10 01:53:45;;;;;;;0.80;0.60;;;;;;;-143.84;63.54;45315.66;5109188;28;20193;-57
2024/01/10 01:56:14;;;;;;;0.80;0.50;;;;;;;-143.84;63.05;45283.28;5109700;28;20200;-57
2024/01/10 01:58:41;;;;;;;0.80;0.68;;;;;;;-143.84;63.08;45308.03;5109394;28;20193;-57
2024/01/10 02:01:09;;;;;;;0.80;0.50;;;;;;;-143.84;62.66;45321.38;5109260;28;20197;-57
2024/01/10 02:03:36;;;;;;;0.80;0.60;;;;;;;-143.84;62.77;45313.75;5109465;28;20230;-57
2024/01/10 02:06:03;;;;;;;0.80;0.50;;;;;;;-143.84;62.71;45311.84;5109395;28;21038;-57
2024/01/10 02:08:31;;;;;;;0.80;0.50;;;;;;;-143.84;62.83;45317.56;5109412;28;20204;-57
2024/01/10 02:11:00;;;;;;;0.80;0.50;;;;;;;-143.84;63.06;45323.28;5109452;28;20677;-57
2024/01/10 02:13:28;;;;;;;0.80;0.60;;;;;;;-143.84;63.05;45338.50;5109474;28;20254;-57
2024/01/10 02:15:55;;;;;;;0.80;0.50;;;;;;;-143.84;63.16;45319.47;5109495;28;20652;-57
2024/01/10 02:18:23;;;;;;;0.80;0.50;;;;;;;-143.84;63.65;45323.28;5109306;28;20528;-57
2024/01/10 02:20:51;;;;;;;0.80;0.50;;;;;;;-143.84;62.92;45323.28;5110698;28;20297;-57
2024/01/10 02:23:19;;;;;;;0.80;0.50;;;;;;;-143.84;63.43;45315.66;5113178;28;20255;-57
2024/01/10 02:25:47;;;;;;;0.80;0.60;;;;;;;-143.84;63.66;45308.03;5113158;28;20228;-57
2024/01/10 02:28:14;;;;;;;0.80;0.60;;;;;;;-143.84;64.00;45315.66;5113174;28;20198;-57
2024/01/10 02:30:42;;;;;;;0.80;0.50;;;;;;;-143.84;64.11;45296.63;5113017;28;20254;-57
2024/01/10 02:33:09;;;;;;;0.80;0.60;;;;;;;-143.84;63.98;45290.91;5113010;28;20535;-57
2024/01/10 02:35:36;;;;;;;0.80;0.50;;;;;;;-143.84;64.54;45315.66;5113080;28;20213;-57
2024/01/10 02:38:04;;;;;;;0.80;0.77;;;;;;;-143.84;64.99;45319.47;5112528;28;20189;-57
2024/01/10 02:40:32;;;;;;;0.80;0.50;;;;;;;-143.84;65.52;45319.47;5113234;28;20643;-56
2024/01/10 02:43:00;;;;;;;0.80;0.50;;;;;;;-143.84;65.45;45315.66;5112718;28;20193;-57
2024/01/10 02:45:27;;;;;;;0.80;0.50;;;;;;;-143.84;65.59;45323.28;5112682;28;20221;-57
2024/01/10 02:47:54;;;;;;;0.80;0.50;;;;;;;-143.84;66.09;45317.56;5112688;28;20622;-57
2024/01/10 02:50:22;;;;;;;0.80;0.70;;;;;;;-143.84;66.45;45323.28;5112568;28;20205;-57
2024/01/10 02:52:49;;;;;;;0.80;0.50;;;;;;;-143.84;66.62;45342.31;5112410;28;20189;-57
2024/01/10 02:55:16;;;;;;;1.17;1.00;;;;;;;-143.84;66.34;45321.38;5112766;28;20270;-57
2024/01/10 02:57:43;;;;;;;0.80;0.50;;;;;;;-143.84;66.82;45346.13;5112543;28;20197;-57
2024/01/10 03:00:13;;;;;;;0.80;0.60;;;;;;;-143.84;66.98;45327.09;5112356;28;20694;-57
2024/01/10 03:02:40;;;;;;;0.80;0.60;;;;;;;-143.84;67.37;45292.81;5112597;28;20257;-56
2024/01/10 03:05:08;;;;;;;0.80;0.50;;;;;;;-143.84;67.63;45317.56;5112357;28;20221;-57
2024/01/10 03:07:35;;;;;;;0.80;0.50;;;;;;;-143.84;67.10;45323.28;5112461;28;20216;-57
2024/01/10 03:10:03;;;;;;;2.78;1.55;;;;;;;-143.84;67.31;45321.38;5112362;28;20201;-57
2024/01/10 03:12:30;;;;;;;1.40;1.30;;;;;;;-143.84;67.76;45346.13;5112295;28;20220;-57
2024/01/10 03:14:58;;;;;;;0.80;0.60;;;;;;;-143.84;67.64;45296.63;5112302;28;20522;-57
2024/01/10 03:17:26;;;;;;;0.80;0.60;;;;;;;-143.84;68.06;45317.56;5112361;28;20262;-57
2024/01/10 03:19:53;;;;;;;0.80;0.60;;;;;;;-143.84;67.81;45330.91;5112254;28;20286;-57
2024/01/10 03:22:20;;;;;;;0.80;0.50;;;;;;;-143.84;68.21;45346.13;5112269;28;20193;-57
2024/01/10 03:24:50;;;;;;;0.80;0.50;;;;;;;-143.84;68.16;45309.94;5112191;28;20590;-57
2024/01/10 03:27:17;;;;;;;0.80;0.50;;;;;;;-143.84;67.93;45329.00;5112469;28;20185;-56
2024/01/10 03:29:44;;;;;;;0.80;0.50;;;;;;;-143.84;68.11;45342.31;5111933;28;20254;-57
2024/01/10 03:32:11;;;;;;;0.80;0.50;;;;;;;-143.84;68.64;45325.19;5111756;28;20201;-58
2024/01/10 03:34:40;;;;;;;0.80;0.60;;;;;;;-143.84;69.02;45323.28;5111974;28;20193;-57
2024/01/10 03:37:07;;;;;;;0.80;0.50;;;;;;;-143.84;68.94;45340.41;5111880;28;20242;-56
2024/01/10 03:39:34;;;;;;;2.08;1.98;;;;;;;-143.84;69.31;45327.09;5111770;28;20205;-57
2024/01/10 03:42:01;;;;;;;0.80;0.60;;;;;;;-143.84;69.76;45334.72;5111857;28;20194;-57
2024/01/10 03:44:28;;;;;;;1.08;0.98;;;;;;;-143.84;69.56;45344.22;5112037;28;20619;-57
2024/01/10 03:46:55;;;;;;;0.80;0.50;;;;;;;-143.84;69.32;45319.47;5111838;28;20690;-56
2024/01/10 03:49:22;;;;;;;0.80;0.60;;;;;;;-143.84;69.60;45325.19;5111847;28;20293;-56
2024/01/10 03:51:51;;;;;;;0.80;0.50;;;;;;;-143.84;69.83;45330.91;5111193;28;20246;-57
2024/01/10 03:54:18;;;;;;;0.80;0.50;;;;;;;-143.84;70.45;45315.66;5111230;28;20185;-57
2024/01/10 03:56:45;;;;;;;0.80;0.50;;;;;;;-143.84;70.64;45315.66;5111113;28;20197;-57
2024/01/10 03:59:12;;;;;;;0.80;0.50;;;;;;;-143.84;70.08;45321.38;5111411;28;20250;-57
2024/01/10 04:01:40;;;;;;;0.80;0.60;;;;;;;-143.84;70.71;45325.19;5111370;28;20197;-56
2024/01/10 04:04:07;;;;;;;0.80;0.60;;;;;;;-143.84;70.73;45304.25;5111190;28;20199;-57
2024/01/10 04:06:34;;;;;;;0.80;0.55;;;;;;;-143.84;70.36;45340.41;5111588;28;20193;-57
2024/01/10 04:09:03;;;;;;;0.80;0.50;;;;;;;-143.84;70.68;45338.50;5111259;28;20736;-57
2024/01/10 04:11:30;;;;;;;0.93;0.82;;;;;;;-143.84;70.92;45317.56;5111432;28;20202;-57
2024/01/10 04:13:57;;;;;;;0.80;0.50;;;;;;;-143.84;70.88;45327.09;5111177;28;20830;-57
2024/01/10 04:16:24;;;;;;;4.82;2.50;;;;;;;-143.84;71.42;45323.28;5111532;28;20246;-57
2024/01/10 04:18:51;;;;;;;0.80;0.50;;;;;;;-143.84;71.53;45315.66;5110996;28;20190;-56
2024/01/10 04:21:19;;;;;;;0.80;0.70;;;;;;;-143.84;71.51;45313.75;5111082;28;20278;-57
2024/01/10 04:23:46;;;;;;;0.80;0.50;;;;;;;-143.84;71.07;45329.00;5108229;28;20214;-56
2024/01/10 04:26:14;;;;;;;0.80;0.50;;;;;;;-143.84;71.40;45308.03;5091256;28;20226;-57
2024/01/10 04:28:41;;;;;;;0.80;0.50;;;;;;;-143.84;71.70;45329.00;5090869;28;20259;-59
2024/01/10 04:31:08;;;;;;;0.80;0.50;;;;;;;-143.84;72.16;45332.81;5109167;28;20209;-59
2024/01/10 04:33:36;;;;;;;0.80;0.50;;;;;;;-143.84;71.71;45319.47;5111185;28;20190;-58
2024/01/10 04:36:03;;;;;;;1.33;1.23;;;;;;;-143.84;71.66;45313.75;5111206;28;20189;-59
2024/01/10 04:38:30;;;;;;;0.80;0.50;;;;;;;-143.84;71.34;45329.00;5111493;28;20244;-59
2024/01/10 04:40:57;;;;;;;0.80;0.50;;;;;;;-143.84;71.11;45302.34;5110737;28;20659;-59
2024/01/10 04:43:26;;;;;;;0.80;0.60;;;;;;;-143.84;71.10;45346.13;5110405;28;20189;-59
2024/01/10 04:45:53;;;;;;;0.80;0.50;;;;;;;-143.84;70.72;45329.00;5109577;28;20229;-58
2024/01/10 04:48:20;;;;;;;0.80;0.50;;;;;;;-143.84;70.83;45294.72;5109020;28;20209;-59
2024/01/10 04:50:47;;;;;;;0.80;0.50;;;;;;;-143.84;70.95;45308.03;5109530;28;20198;-58
2024/01/10 04:53:14;;;;;;;14.15;1.73;;;;;;;-143.84;71.00;45336.59;5109834;28;20254;-59
2024/01/10 04:55:41;;;;;;;0.80;0.60;;;;;;;-143.84;70.96;45308.03;5109620;28;20196;-59
2024/01/10 04:58:08;;;;;;;0.80;0.50;;;;;;;-143.84;71.00;45325.19;5110105;28;20712;-59
2024/01/10 05:00:37;;;;;;;0.80;0.50;;;;;;;-143.84;70.46;45332.81;5110385;28;20205;-59
2024/01/10 05:03:04;;;;;;;0.80;0.50;;;;;;;-143.84;70.55;45327.09;5110163;28;20200;-59
2024/01/10 05:05:31;;;;;;;0.80;0.60;;;;;;;-143.84;70.43;45336.59;5110431;28;20571;-58
2024/01/10 05:07:58;;;;;;;0.80;0.60;;;;;;;-143.84;70.29;45361.38;5110199;28;20181;-59
2024/01/10 05:10:26;;;;;;;0.80;0.60;;;;;;;-143.84;70.26;45315.66;5110440;28;20197;-59
2024/01/10 05:12:53;;;;;;;0.80;0.50;;;;;;;-143.84;70.17;45355.66;5110152;28;20619;-59
2024/01/10 05:15:20;;;;;;;0.80;0.60;;;;;;;-143.84;69.67;45327.09;5110220;28;20270;-59
2024/01/10 05:17:48;;;;;;;0.80;0.50;;;;;;;-143.84;69.54;45311.84;5109834;28;20280;-59
2024/01/10 05:20:15;;;;;;;0.85;0.75;;;;;;;-143.84;69.17;45319.47;5101133;28;20722;-59
2024/01/10 05:22:44;;;;;;;0.80;0.60;;;;;;;-143.84;68.66;45309.94;5089768;28;20206;-58
2024/01/10 05:25:11;;;;;;;0.80;0.60;;;;;;;-143.84;68.49;45290.91;5097816;28;20275;-59
2024/01/10 05:27:38;;;;;;;0.80;0.50;;;;;;;-143.84;67.82;45342.31;5090001;28;20182;-59
2024/01/10 05:30:07;;;;;;;0.80;0.60;;;;;;;-143.84;67.76;45317.56;5089950;28;20194;-58
2024/01/10 05:32:34;;;;;;;0.80;0.50;;;;;;;-143.84;67.26;45304.25;5089932;28;20205;-59
2024/01/10 05:35:02;;;;;;;0.80;0.60;;;;;;;-143.84;67.28;45285.19;5090006;28;20190;-59
2024/01/10 05:37:29;;;;;;;0.80;0.50;;;;;;;-143.84;66.70;45329.00;5089552;28;20205;-59
2024/01/10 05:39:56;;;;;;;0.80;0.70;;;;;;;-143.84;65.84;45340.41;5089742;28;20224;-59
2024/01/10 05:42:23;;;;;;;0.90;0.77;;;;;;;-143.84;65.62;45315.66;5090183;28;20624;-59
2024/01/10 05:44:52;;;;;;;0.80;0.50;;;;;;;-143.84;65.63;45289.00;5089335;28;20190;-59
2024/01/10 05:47:19;;;;;;;1.33;0.82;;;;;;;-143.84;64.79;45334.72;5089409;28;20666;-59
2024/01/10 05:49:46;;;;;;;0.80;0.50;;;;;;;-143.84;64.72;45313.75;5089715;28;20194;-59
2024/01/10 05:52:14;;;;;;;0.80;0.50;;;;;;;-143.84;63.83;45313.75;5089662;28;20201;-59
2024/01/10 05:54:42;;;;;;;0.80;0.50;;;;;;;-143.84;63.28;45321.38;5090982;28;20687;-58
2024/01/10 05:57:09;;;;;;;0.80;0.50;;;;;;;-143.84;63.17;45321.38;5093641;28;20198;-59
2024/01/10 05:59:36;;;;;;;0.80;0.50;;;;;;;-143.84;63.10;45317.56;5093380;28;20194;-59
2024/01/10 06:02:04;;;;;;;0.80;0.50;;;;;;;-143.84;62.41;45327.09;5093573;28;20193;-59
2024/01/10 06:04:32;;;;;;;0.80;0.50;;;;;;;-143.84;62.78;45315.66;5093451;28;20194;-58
2024/01/10 06:07:00;;;;;;;0.80;0.52;;;;;;;-143.84;61.81;45338.50;5093352;28;20210;-59
2024/01/10 06:09:28;;;;;;;0.90;0.70;;;;;;;-143.84;61.39;45290.91;5093408;28;20202;-59
2024/01/10 06:11:55;;;;;;;3.95;1.23;;;;;;;-143.84;60.95;45334.72;5093411;28;20225;-59
2024/01/10 06:14:22;;;;;;;0.80;0.50;;;;;;;-143.84;60.29;45338.50;5092978;28;20208;-59
2024/01/10 06:16:50;;;;;;;0.80;0.60;;;;;;;-143.84;59.25;45315.66;5093222;28;20593;-59
2024/01/10 06:19:18;;;;;;;0.80;0.50;;;;;;;-143.84;58.51;45294.72;5093144;28;20263;-59
2024/01/10 06:21:45;;;;;;;0.80;0.57;;;;;;;-143.84;57.78;45317.56;5092966;28;20295;-59
2024/01/10 06:24:12;;;;;;;0.80;0.50;;;;;;;-143.84;56.73;45311.84;5092694;28;20219;-59
2024/01/10 06:26:41;;;;;;;0.80;0.50;;;;;;;-143.84;56.00;45336.59;5093003;28;20225;-59
2024/01/10 06:29:08;;;;;;;0.80;0.50;;;;;;;-143.84;55.29;45281.38;5093069;28;20198;-59
2024/01/10 06:31:35;;;;;;;0.80;0.60;;;;;;;-143.84;55.34;45296.63;5092781;28;20190;-59
2024/01/10 06:34:02;;;;;;;0.80;0.60;;;;;;;-143.84;55.36;45300.44;5093112;28;20198;-59
2024/01/10 06:36:29;;;;;;;0.80;0.50;;;;;;;-143.84;55.88;45330.91;5093074;28;20235;-59
2024/01/10 06:38:56;;;;;;;0.80;0.50;;;;;;;-143.84;56.39;45315.66;5092866;28;20259;-58
2024/01/10 06:41:24;;;;;;;0.80;0.63;;;;;;;-143.84;56.36;45289.00;5093179;28;20578;-59
2024/01/10 06:43:53;;;;;;;1.30;1.15;;;;;;;-143.84;55.90;45338.50;5092611;28;20201;-58
2024/01/10 06:46:21;;;;;;;0.80;0.50;;;;;;;-143.84;54.84;45308.03;5092456;28;20304;-59
2024/01/10 06:48:49;;;;;;;0.80;0.50;;;;;;;-143.84;53.38;45325.19;5092475;28;20201;-59
2024/01/10 06:51:16;;;;;;;0.80;0.50;;;;;;;-143.84;51.82;45332.81;5092676;28;20275;-59
2024/01/10 06:53:43;;;;;;;0.80;0.50;;;;;;;-143.84;51.11;45309.94;5092664;28;20844;-57
2024/01/10 06:56:11;;;;;;;1.02;0.93;;;;;;;-143.84;49.50;45298.53;5092419;28;20295;-57
2024/01/10 06:58:39;;;;;;;0.80;0.50;;;;;;;-143.84;48.86;45306.13;5092454;28;20765;-57
2024/01/10 07:01:13;;;;;;;0.80;0.50;;;;;;;-143.84;48.79;45289.00;5092517;28;20271;-56
2024/01/10 07:03:40;;;;;;;0.80;0.50;;;;;;;-143.84;48.79;45287.09;5092267;28;20202;-57
2024/01/10 07:06:08;;;;;;;0.80;0.60;;;;;;;-143.84;48.12;45323.28;5091185;28;20303;-57
2024/01/10 07:08:35;;;;;;;0.80;0.50;;;;;;;-143.84;48.01;45296.63;5092174;28;20281;-57
2024/01/10 07:11:02;;;;;;;2.00;1.35;;;;;;;-143.84;47.63;45313.75;5091863;28;20599;-57
2024/01/10 07:13:29;;;;;;;0.80;0.50;;;;;;;-143.84;46.88;45285.19;5091506;28;20206;-58
2024/01/10 07:16:01;;;;;;;0.80;0.60;;;;;;;-143.84;46.53;45309.94;5091172;28;20205;-57
2024/01/10 07:18:30;;;;;;;0.80;0.50;;;;;;;-143.84;46.22;45275.66;5091972;28;20231;-57
2024/01/10 07:20:57;;;;;;;0.80;0.60;;;;;;;-143.84;46.14;45285.19;5091715;28;20723;-57
2024/01/10 07:23:24;;;;;;;0.80;0.50;;;;;;;-143.84;46.09;45281.38;5091964;28;20202;-57
2024/01/10 07:25:52;;;;;;;0.80;0.50;;;;;;;-143.84;45.61;45290.91;5091532;28;20283;-57
2024/01/10 07:28:19;;;;;;;0.80;0.50;;;;;;;-143.84;45.98;45300.44;5091647;28;20202;-57
2024/01/10 07:30:47;;;;;;;0.80;0.50;;;;;;;-143.84;45.75;45287.09;5091634;28;20190;-57
2024/01/10 07:33:15;;;;;;;0.80;0.50;;;;;;;-143.84;45.28;45296.63;5091502;28;20194;-57
2024/01/10 07:35:43;;;;;;;0.80;0.50;;;;;;;-143.84;45.30;45268.06;5091857;28;20292;-57
2024/01/10 07:38:10;;;;;;;0.80;0.47;;;;;;;-143.84;45.46;45285.19;5091541;28;20221;-57
2024/01/10 07:40:38;;;;;;;0.80;0.52;;;;;;;-143.84;44.84;45266.16;5091485;28;20251;-57
2024/01/10 07:43:05;;;;;;;0.80;0.50;;;;;;;-143.84;44.67;45254.72;5091260;28;20208;-57
2024/01/10 07:45:33;;;;;;;0.80;0.47;;;;;;;-143.84;44.50;45287.09;5091193;28;20222;-57
2024/01/10 07:48:00;;;;;;;0.80;0.50;;;;;;;-143.84;44.55;45249.00;5091218;28;20719;-57
2024/01/10 07:50:28;;;;;;;0.80;0.50;;;;;;;-143.84;44.15;45287.09;5091824;28;20187;-57
2024/01/10 07:52:57;;;;;;;0.80;0.50;;;;;;;-143.84;43.33;45254.72;5091239;28;20194;-57
2024/01/10 07:55:24;;;;;;;0.80;0.40;;;;;;;-143.84;43.50;45275.66;5090861;28;20194;-57
2024/01/10 07:57:51;;;;;;;0.80;0.40;;;;;;;-143.84;43.45;45269.97;5090799;28;20671;-57
2024/01/10 08:00:20;;;;;;;0.80;0.50;;;;;;;-143.84;43.36;45269.97;5090890;28;20198;-57
2024/01/10 08:02:48;;;;;;;0.80;0.50;;;;;;;-143.84;43.56;45266.16;5091098;28;20443;-57
2024/01/10 08:05:15;;;;;;;0.80;0.50;;;;;;;-143.84;43.47;45271.88;5090820;28;20206;-57
2024/01/10 08:07:43;;;;;;;0.80;0.40;;;;;;;-143.84;43.29;45239.50;5090779;28;20206;-58
2024/01/10 08:10:13;;;;;;;0.80;0.50;;;;;;;-143.84;43.40;45290.91;5090522;28;20436;-57
2024/01/10 08:12:41;;;;;;;0.80;0.50;;;;;;;-143.84;43.46;45256.63;5090642;28;20488;-58
2024/01/10 08:15:10;;;;;;;0.80;0.50;;;;;;;-143.84;42.74;45285.19;5090721;28;20820;-58
2024/01/10 08:17:37;;;;;;;0.90;0.60;;;;;;;-143.84;42.81;45277.56;5090644;28;20928;-58
2024/01/10 08:20:04;;;;;;;1.33;1.23;;;;;;;-143.84;42.68;45273.78;5090625;28;20553;-58
2024/01/10 08:22:31;;;;;;;0.80;0.50;;;;;;;-143.84;42.50;45266.16;5090628;28;20444;-58
2024/01/10 08:24:59;;;;;;;0.93;0.70;;;;;;;-143.84;42.11;45247.09;5090221;28;20197;-58
2024/01/10 08:27:27;;;;;;;0.80;0.50;;;;;;;-143.84;42.22;45235.69;5090095;28;20476;-58
2024/01/10 08:29:54;;;;;;;5.80;1.17;;;;;;;-143.84;42.27;45254.72;5090351;28;20436;-58
2024/01/10 08:32:21;;;;;;;1.40;1.00;;;;;;;-143.84;42.27;45269.97;5090304;28;20436;-58
2024/01/10 08:34:49;;;;;;;0.80;0.50;;;;;;;-143.84;41.34;45258.53;5090353;28;20934;-58
2024/01/10 08:37:17;;;;;;;2.60;1.63;;;;;;;-143.84;40.83;45243.31;5090447;28;20914;-57
2024/01/10 08:39:44;;;;;;;0.80;0.40;;;;;;;-143.84;40.53;45250.91;5090345;28;20484;-58
2024/01/10 08:42:11;;;;;;;1.00;0.90;;;;;;;-143.84;40.48;45254.72;5090248;28;20432;-58
2024/01/10 08:44:39;;;;;;;0.80;0.60;;;;;;;-143.84;39.95;45264.25;5090110;28;20471;-58
2024/01/10 08:47:07;;;;;;;0.80;0.50;;;;;;;-143.84;40.00;45254.72;5090230;28;20473;-58
2024/01/10 08:49:34;;;;;;;1.00;0.90;;;;;;;-143.84;40.04;45247.09;5090135;28;20433;-58
2024/01/10 08:52:01;;;;;;;0.80;0.50;;;;;;;-143.84;39.89;45229.97;5090090;28;21051;-58
2024/01/10 08:54:28;;;;;;;0.80;0.40;;;;;;;-143.84;39.89;45228.06;5089877;28;20440;-58
2024/01/10 08:56:55;;;;;;;0.80;0.60;;;;;;;-143.84;39.87;45241.41;5089793;28;20532;-58
2024/01/10 08:59:23;;;;;;;0.80;0.50;;;;;;;-143.84;39.12;45258.53;5090173;28;20440;-58
2024/01/10 09:01:52;;;;;;;0.80;0.50;;;;;;;-143.84;39.57;45233.78;5089964;28;20796;-58
2024/01/10 09:04:19;;;;;;;0.80;0.50;;;;;;;-143.84;38.89;45250.91;5089764;28;20462;-59
2024/01/10 09:06:47;;;;;;;0.80;0.50;;;;;;;-143.84;38.95;45245.19;5089407;28;20489;-58
2024/01/10 09:09:14;;;;;;;0.80;0.50;;;;;;;-143.84;39.46;45231.88;5089184;28;20427;-58
2024/01/10 09:11:41;;;;;;;0.80;0.50;;;;;;;-143.84;39.42;45233.78;5088327;28;20448;-58
2024/01/10 09:14:09;;;;;;;0.80;0.50;;;;;;;-143.84;38.72;45229.97;5088697;28;20963;-58
2024/01/10 09:16:36;;;;;;;0.80;0.50;;;;;;;-143.84;38.81;45241.41;5088862;28;20525;-59
2024/01/10 09:19:04;;;;;;;0.90;0.67;;;;;;;-143.84;38.77;45239.50;5088640;28;20803;-58
2024/01/10 09:21:32;;;;;;;0.80;0.50;;;;;;;-143.84;38.41;45243.31;5088838;28;20516;-58
2024/01/10 09:24:00;;;;;;;0.80;0.50;;;;;;;-143.84;38.48;45220.44;5089497;28;20940;-58
2024/01/10 09:26:27;;;;;;;0.80;0.60;;;;;;;-143.84;38.34;45254.72;5089283;28;20478;-58
2024/01/10 09:28:54;;;;;;;0.80;0.60;;;;;;;-143.84;38.16;45216.63;5089267;28;20443;-58
2024/01/10 09:31:21;;;;;;;1.00;0.70;;;;;;;-143.84;38.28;45243.31;5089429;28;20925;-58
2024/01/10 09:33:48;;;;;;;1.30;0.97;;;;;;;-143.84;38.72;45220.44;5089694;28;20526;-58
2024/01/10 09:36:17;;;;;;;0.80;0.50;;;;;;;-143.84;38.55;45237.59;5089220;28;20443;-58
2024/01/10 09:38:44;;;;;;;0.80;0.50;;;;;;;-143.84;39.77;45241.41;5089369;28;20442;-58
2024/01/10 09:41:13;;;;;;;1.10;0.87;;;;;;;-143.84;39.15;45269.97;5089159;28;20522;-58
2024/01/10 09:43:40;;;;;;;0.80;0.50;;;;;;;-143.84;38.62;45252.81;5089172;28;20935;-59
2024/01/10 09:46:10;;;;;;;1.10;0.83;;;;;;;-143.84;39.47;45237.59;5089088;28;20443;-59
2024/01/10 09:48:37;;;;;;;0.80;0.50;;;;;;;-143.84;40.08;45243.31;5088941;28;20445;-59
2024/01/10 09:51:05;;;;;;;0.80;0.50;;;;;;;-143.84;40.17;45243.31;5089270;28;20933;-59
2024/01/10 09:53:36;;;;;;;0.80;0.50;;;;;;;-143.84;39.29;45210.94;5089126;28;20439;-59
2024/01/10 09:56:05;;;;;;;0.80;0.60;;;;;;;-143.84;39.36;45233.78;5089144;28;20493;-58
2024/01/10 09:58:38;;;;;;;1.57;1.47;;;;;;;-143.84;39.73;45241.41;5089406;28;20436;-58
2024/01/10 10:01:06;;;;;;;0.83;0.67;;;;;;;-143.84;39.20;45239.50;5089265;28;20998;-59
2024/01/10 10:03:37;;;;;;;0.80;0.40;;;;;;;-143.84;39.41;45252.81;5089073;28;20451;-58
2024/01/10 10:06:05;;;;;;;1.57;1.00;;;;;;;-143.84;38.13;45243.31;5089050;28;20477;-59
2024/01/10 10:08:33;;;;;;;1.00;0.90;;;;;;;-143.84;38.81;45250.91;5089042;28;20450;-58
2024/01/10 10:11:01;;;;;;;0.80;0.50;;;;;;;-143.84;39.08;45229.97;5089018;28;20447;-58
2024/01/10 10:13:29;;;;;;;0.80;0.50;;;;;;;-143.84;39.19;45249.00;5089150;28;20443;-58
2024/01/10 10:16:00;;;;;;;0.90;0.80;;;;;;;-143.84;39.11;45235.69;5089427;28;20446;-59
2024/01/10 10:18:28;;;;;;;0.83;0.67;;;;;;;-143.84;39.10;45233.78;5088997;28;20540;-58
2024/01/10 10:21:09;;;;;;;0.90;0.80;;;;;;;-143.84;38.91;45235.69;5088687;28;20490;-59
2024/01/10 10:23:38;;;;;;;0.80;0.70;;;;;;;-143.84;38.69;45228.06;5088934;28;20526;-58
2024/01/10 10:26:19;;;;;;;1.10;1.00;;;;;;;-143.84;38.41;45216.63;5091964;28;20442;-58
2024/01/10 10:28:46;;;;;;;0.80;0.40;;;;;;;-143.84;39.47;45235.69;5088488;28;20440;-58
2024/01/10 10:31:14;;;;;;;1.00;0.90;;;;;;;-143.84;39.20;45226.16;5088764;28;20936;-58
2024/01/10 10:33:41;;;;;;;0.80;0.60;;;;;;;-143.84;39.24;45218.53;5088705;28;20949;-58
2024/01/10 10:36:09;;;;;;;2.00;1.13;;;;;;;-143.84;39.49;45226.16;5088761;28;20448;-58
2024/01/10 10:38:38;;;;;;;0.80;0.50;;;;;;;-143.84;39.12;45203.31;5088431;28;20496;-58
2024/01/10 10:41:10;;;;;;;0.80;0.60;;;;;;;-143.84;39.88;45239.50;5089060;28;20467;-58
2024/01/10 10:43:38;;;;;;;0.80;0.57;;;;;;;-143.84;40.02;45231.88;5092252;28;20841;-58
2024/01/10 10:46:06;;;;;;;1.03;0.93;;;;;;;-143.84;40.23;45212.84;5092002;28;20511;-58
2024/01/10 10:48:35;;;;;;;2.60;1.60;;;;;;;-143.84;40.14;45252.81;5091816;28;20557;-58
2024/01/10 10:51:07;;;;;;;1.20;1.00;;;;;;;-143.84;39.97;45220.44;5091896;28;20541;-58
2024/01/10 10:53:36;;;;;;;0.80;0.50;;;;;;;-143.84;40.35;45212.84;5092392;28;20523;-58
2024/01/10 10:56:07;;;;;;;0.80;0.50;;;;;;;-143.84;40.52;45233.78;5092316;28;20443;-59
2024/01/10 10:58:37;;;;;;;1.20;0.97;;;;;;;-143.84;40.40;45226.16;5092069;28;20883;-58
2024/01/10 11:01:08;;;;;;;0.80;0.50;;;;;;;-143.84;39.80;45233.78;5092002;28;20437;-58
2024/01/10 11:03:37;;;;;;;0.80;0.40;;;;;;;-143.84;40.96;45212.84;5091650;28;20532;-59
2024/01/10 11:06:05;;;;;;;1.93;0.90;;;;;;;-143.84;40.60;45231.88;5091851;28;20470;-58
2024/01/10 11:08:37;;;;;;;0.80;0.67;;;;;;;-143.84;41.10;45216.63;5091671;28;20479;-59
2024/01/10 11:11:14;;;;;;;0.80;0.60;;;;;;;-143.84;41.56;45249.00;5091672;28;20530;-58
2024/01/10 11:14:03;;;;;;;0.90;0.60;;;;;;;-143.84;42.62;45245.19;5091469;28;20441;-58
2024/01/10 11:16:54;;;;;;;1.00;0.90;;;;;;;-143.84;42.09;45271.88;5091347;28;20443;-58
2024/01/10 11:19:51;;;;;;;0.80;0.50;;;;;;;-143.84;42.22;45216.63;5089514;28;20455;-58